Vernon, Wisconsin
Current Conditions -  °F | °C
As of 10:09 AM on Monday 24 Nov 2014 (Local Time) from KUES Reporting Station
Drizzle Drizzle  
Wind Chill: 29°   Ceiling: 700
Heat Index: 37°   Visibility: 2mi
Dew Point: 37°   Wind: 13mph
Humidity: 100%   Direction: 270°W
Pressure: 29.13"   Gusts: 20mph
Location:  42.9962°N, 88.3115°W
Report Text: KUES 241609Z 27011G17KT 2SM -DZ BR OVC007 03/03 A2913
Loading
Personal Weather Stations






























Interactive Weather Map New forecast layout! Learn more

10-Day Weather Forecast

Advertisements
Track Severe Weather on mobile